createdAt,value
2023-05-09T00:00:33.557Z,10.76
2023-05-09T00:01:33.572Z,10.72
2023-05-09T00:02:33.579Z,10.75
2023-05-09T00:03:33.556Z,10.57
2023-05-09T00:04:33.571Z,10.61
2023-05-09T00:05:33.553Z,10.54
2023-05-09T00:06:33.629Z,10.60
2023-05-09T00:07:33.520Z,10.51
2023-05-09T00:08:33.492Z,10.57
2023-05-09T00:09:33.504Z,10.42
2023-05-09T00:10:33.495Z,10.42
2023-05-09T00:11:33.495Z,10.44
2023-05-09T00:12:33.530Z,10.41
2023-05-09T00:13:33.503Z,10.33
2023-05-09T00:14:33.613Z,10.33
2023-05-09T00:15:33.462Z,10.40
2023-05-09T00:16:33.467Z,10.31
2023-05-09T00:17:33.498Z,10.40
2023-05-09T00:18:33.422Z,10.46
2023-05-09T00:19:33.489Z,10.41
2023-05-09T00:20:33.415Z,10.38
2023-05-09T00:21:33.446Z,10.46
2023-05-09T00:22:33.489Z,10.42
2023-05-09T00:23:33.420Z,10.57
2023-05-09T00:24:33.388Z,10.57
2023-05-09T00:25:33.450Z,10.38
2023-05-09T00:26:33.410Z,10.42
2023-05-09T00:27:33.387Z,10.37
2023-05-09T00:28:33.365Z,10.38
2023-05-09T00:29:33.366Z,10.33
2023-05-09T00:30:33.372Z,10.26
2023-05-09T00:31:33.390Z,10.31
2023-05-09T00:32:33.418Z,10.23
2023-05-09T00:33:33.398Z,10.38
2023-05-09T00:34:33.330Z,10.38
2023-05-09T00:35:33.350Z,10.23
2023-05-09T00:36:33.313Z,10.19
2023-05-09T00:37:33.323Z,10.23
2023-05-09T00:38:33.385Z,10.15
2023-05-09T00:39:33.327Z,10.28
2023-05-09T00:40:33.275Z,10.23
2023-05-09T00:41:33.298Z,10.30
2023-05-09T00:42:33.283Z,10.22
2023-05-09T00:43:33.301Z,10.17
2023-05-09T00:44:33.302Z,10.19
2023-05-09T00:45:33.278Z,10.13
2023-05-09T00:46:33.277Z,10.20
2023-05-09T00:47:33.416Z,10.05
2023-05-09T00:48:33.262Z,10.16
2023-05-09T00:49:33.282Z,10.10
2023-05-09T00:50:33.239Z,10.02
2023-05-09T00:51:33.244Z,10.15
2023-05-09T00:52:33.238Z,10.05
2023-05-09T00:53:33.286Z,10.16
2023-05-09T00:54:33.286Z,10.12
2023-05-09T00:55:33.241Z,10.13
2023-05-09T00:56:33.176Z,10.19
2023-05-09T00:57:33.196Z,10.31
2023-05-09T00:58:33.192Z,10.19
2023-05-09T00:59:33.185Z,10.19
2023-05-09T01:00:33.178Z,10.25
2023-05-09T01:01:33.235Z,10.10
2023-05-09T01:02:33.264Z,9.99
2023-05-09T01:03:33.234Z,10.01
2023-05-09T01:04:33.142Z,10.13
2023-05-09T01:05:33.207Z,10.07
2023-05-09T01:06:33.124Z,10.01
2023-05-09T01:07:33.148Z,10.15
2023-05-09T01:08:33.109Z,10.15
2023-05-09T01:09:33.112Z,10.23
2023-05-09T01:10:33.199Z,10.20
2023-05-09T01:11:33.129Z,10.35
2023-05-09T01:12:33.086Z,10.37
2023-05-09T01:13:33.120Z,10.31
2023-05-09T01:14:33.088Z,10.31
2023-05-09T01:15:33.134Z,10.38
2023-05-09T01:16:33.060Z,10.30
2023-05-09T01:17:33.114Z,10.20
2023-05-09T01:18:33.082Z,10.16
2023-05-09T01:19:33.102Z,10.17
2023-05-09T01:20:33.027Z,10.16
2023-05-09T01:21:33.059Z,10.13
2023-05-09T01:22:33.026Z,10.02
2023-05-09T01:23:33.031Z,10.12
2023-05-09T01:24:33.019Z,10.05
2023-05-09T01:25:33.048Z,10.10
2023-05-09T01:26:33.089Z,9.99
2023-05-09T01:27:33.009Z,9.97
2023-05-09T01:28:32.987Z,10.01
2023-05-09T01:29:33.018Z,9.94
2023-05-09T01:30:32.987Z,9.86
2023-05-09T01:31:33.006Z,9.92
2023-05-09T01:32:32.977Z,9.99
2023-05-09T01:33:32.976Z,9.92
2023-05-09T01:34:32.951Z,9.92
2023-05-09T01:35:32.967Z,9.95
2023-05-09T01:36:32.962Z,9.94
2023-05-09T01:37:33.008Z,9.92
2023-05-09T01:38:32.924Z,9.92
2023-05-09T01:39:32.936Z,9.95
2023-05-09T01:40:32.893Z,9.97
2023-05-09T01:41:32.931Z,9.92
2023-05-09T01:42:33.011Z,9.92
2023-05-09T01:43:32.897Z,9.89
2023-05-09T01:44:32.875Z,9.99
2023-05-09T01:45:32.921Z,9.84
2023-05-09T01:46:32.874Z,9.82
2023-05-09T01:47:32.893Z,9.76
2023-05-09T01:48:32.849Z,9.69
2023-05-09T01:49:32.862Z,9.73
2023-05-09T01:50:32.824Z,9.72
2023-05-09T01:51:32.842Z,9.77
2023-05-09T01:52:32.835Z,9.82
2023-05-09T01:53:32.824Z,9.83
2023-05-09T01:54:32.797Z,9.82
2023-05-09T01:55:32.823Z,9.82
2023-05-09T01:56:32.787Z,9.80
2023-05-09T01:57:32.792Z,9.79
2023-05-09T01:58:32.877Z,9.86
2023-05-09T01:59:32.790Z,9.94
2023-05-09T02:00:32.753Z,9.83
2023-05-09T02:01:32.764Z,9.87
2023-05-09T02:02:32.816Z,9.84
2023-05-09T02:03:32.791Z,9.89
2023-05-09T02:04:32.735Z,9.89
2023-05-09T02:05:32.725Z,9.99
2023-05-09T02:06:32.760Z,10.01
2023-05-09T02:07:32.767Z,10.05
2023-05-09T02:08:32.718Z,10.01
2023-05-09T02:09:32.742Z,10.09
2023-05-09T02:10:32.686Z,10.05
2023-05-09T02:11:32.725Z,10.04
2023-05-09T02:12:32.694Z,10.05
2023-05-09T02:13:32.695Z,10.02
2023-05-09T02:14:32.777Z,10.13
2023-05-09T02:15:33.072Z,10.10
2023-05-09T02:16:32.681Z,10.02
2023-05-09T02:17:32.659Z,10.04
2023-05-09T02:18:32.750Z,10.07
2023-05-09T02:19:32.651Z,10.13
2023-05-09T02:20:32.634Z,10.13
2023-05-09T02:21:32.670Z,10.09
2023-05-09T02:22:32.606Z,10.13
2023-05-09T02:23:32.611Z,10.04
2023-05-09T02:24:32.594Z,9.99
2023-05-09T02:25:32.611Z,10.05
2023-05-09T02:26:32.599Z,10.04
2023-05-09T02:27:32.609Z,10.01
2023-05-09T02:28:32.562Z,9.89
2023-05-09T02:29:32.573Z,9.89
2023-05-09T02:30:32.667Z,9.80
2023-05-09T02:31:32.602Z,9.77
2023-05-09T02:32:32.624Z,9.77
2023-05-09T02:33:32.546Z,9.61
2023-05-09T02:34:32.519Z,9.58
2023-05-09T02:35:32.582Z,9.50
2023-05-09T02:36:32.521Z,9.43
2023-05-09T02:37:32.624Z,9.46
2023-05-09T02:38:32.526Z,9.37
2023-05-09T02:39:32.518Z,9.37
2023-05-09T02:40:32.502Z,9.41
2023-05-09T02:41:32.503Z,9.40
2023-05-09T02:42:32.491Z,9.39
2023-05-09T02:43:32.505Z,9.34
2023-05-09T02:44:32.452Z,9.36
2023-05-09T02:45:32.467Z,9.25
2023-05-09T02:46:32.616Z,9.36
2023-05-09T02:47:32.471Z,9.36
2023-05-09T02:48:32.427Z,9.32
2023-05-09T02:49:32.897Z,9.29
2023-05-09T02:50:32.436Z,9.28
2023-05-09T02:51:32.446Z,9.23
2023-05-09T02:52:32.419Z,9.23
2023-05-09T02:53:32.410Z,9.22
2023-05-09T02:54:32.387Z,9.14
2023-05-09T02:55:32.391Z,9.16
2023-05-09T02:56:32.411Z,9.04
2023-05-09T02:57:32.407Z,8.99
2023-05-09T02:58:32.369Z,9.04
2023-05-09T02:59:32.382Z,9.03
2023-05-09T03:00:32.400Z,8.95
2023-05-09T03:01:32.424Z,9.03
2023-05-09T03:02:32.532Z,8.97
2023-05-09T03:03:32.421Z,9.00
2023-05-09T03:04:32.352Z,8.91
2023-05-09T03:05:32.360Z,8.95
2023-05-09T03:06:32.307Z,9.02
2023-05-09T03:07:32.351Z,9.04
2023-05-09T03:08:32.341Z,8.94
2023-05-09T03:09:32.309Z,8.89
2023-05-09T03:10:32.294Z,8.92
2023-05-09T03:11:32.336Z,8.81
2023-05-09T03:12:32.306Z,8.85
2023-05-09T03:13:32.280Z,8.74
2023-05-09T03:14:32.287Z,8.73
2023-05-09T03:15:32.285Z,8.69
2023-05-09T03:16:32.273Z,8.74
2023-05-09T03:17:32.318Z,8.70
2023-05-09T03:18:32.335Z,8.70
2023-05-09T03:19:32.255Z,8.81
2023-05-09T03:20:32.229Z,8.69
2023-05-09T03:21:32.251Z,8.64
2023-05-09T03:22:32.212Z,8.64
2023-05-09T03:23:32.263Z,8.66
2023-05-09T03:24:32.218Z,8.70
2023-05-09T03:25:32.593Z,8.71
2023-05-09T03:26:32.201Z,8.70
2023-05-09T03:27:32.198Z,8.70
2023-05-09T03:28:32.178Z,8.73
2023-05-09T03:29:32.188Z,8.73
2023-05-09T03:30:32.197Z,8.71
2023-05-09T03:31:32.256Z,8.71
2023-05-09T03:32:32.200Z,8.73
2023-05-09T03:33:32.170Z,8.58
2023-05-09T03:34:32.238Z,8.71
2023-05-09T03:35:32.215Z,8.81
2023-05-09T03:36:32.165Z,8.71
2023-05-09T03:37:32.167Z,8.61
2023-05-09T03:38:32.208Z,8.56
2023-05-09T03:39:32.122Z,8.66
2023-05-09T03:40:32.118Z,8.58
2023-05-09T03:41:32.134Z,8.60
2023-05-09T03:42:32.143Z,8.58
2023-05-09T03:43:32.127Z,8.55
2023-05-09T03:44:32.094Z,8.56
2023-05-09T03:45:32.093Z,8.49
2023-05-09T03:46:32.176Z,8.60
2023-05-09T03:47:32.142Z,8.67
2023-05-09T03:48:32.078Z,8.69
2023-05-09T03:49:32.055Z,8.67
2023-05-09T03:50:32.124Z,8.69
2023-05-09T03:51:32.055Z,8.67
2023-05-09T03:52:32.057Z,8.61
2023-05-09T03:53:32.081Z,8.63
2023-05-09T03:54:32.015Z,8.60
2023-05-09T03:55:32.054Z,8.69
2023-05-09T03:56:32.022Z,8.78
2023-05-09T03:57:32.063Z,8.79
2023-05-09T03:58:32.010Z,8.73
2023-05-09T03:59:32.007Z,8.88
2023-05-09T04:00:32.001Z,8.76
2023-05-09T04:01:32.018Z,8.78
2023-05-09T04:02:32.128Z,8.74
2023-05-09T04:03:32.141Z,8.82
2023-05-09T04:04:31.955Z,8.91
2023-05-09T04:05:32.053Z,8.99
2023-05-09T04:06:32.044Z,9.00
2023-05-09T04:07:31.992Z,9.04
2023-05-09T04:08:31.931Z,9.06
2023-05-09T04:09:31.951Z,9.31
2023-05-09T04:10:31.926Z,9.36
2023-05-09T04:11:31.951Z,9.31
2023-05-09T04:12:31.924Z,9.41
2023-05-09T04:13:31.979Z,9.56
2023-05-09T04:14:31.912Z,9.83
2023-05-09T04:15:31.913Z,9.89
2023-05-09T04:16:31.918Z,10.10
2023-05-09T04:17:31.905Z,10.38
2023-05-09T04:18:31.891Z,10.41
2023-05-09T04:19:31.927Z,10.64
2023-05-09T04:20:31.848Z,10.76
2023-05-09T04:21:31.879Z,11.04
2023-05-09T04:22:31.936Z,11.14
2023-05-09T04:23:31.857Z,11.48
2023-05-09T04:24:31.851Z,11.81
2023-05-09T04:25:31.851Z,11.90
2023-05-09T04:26:31.811Z,11.90
2023-05-09T04:27:31.819Z,12.25
2023-05-09T04:28:31.827Z,12.43
2023-05-09T04:29:31.792Z,12.64
2023-05-09T04:30:31.816Z,12.61
2023-05-09T04:31:31.832Z,12.55
2023-05-09T04:32:31.850Z,12.86
2023-05-09T04:33:31.768Z,12.83
2023-05-09T04:34:31.770Z,12.62
2023-05-09T04:35:31.761Z,12.37
2023-05-09T04:36:31.735Z,12.42
2023-05-09T04:37:31.775Z,12.67
2023-05-09T04:38:31.856Z,12.62
2023-05-09T04:39:31.719Z,12.47
2023-05-09T04:40:31.714Z,12.37
2023-05-09T04:41:31.729Z,12.55
2023-05-09T04:42:31.690Z,12.87
2023-05-09T04:43:31.733Z,13.35
2023-05-09T04:44:31.687Z,13.46
2023-05-09T04:45:31.708Z,13.20
2023-05-09T04:46:31.692Z,12.94
2023-05-09T04:47:31.694Z,13.30
2023-05-09T04:48:31.705Z,13.23
2023-05-09T04:49:31.759Z,13.42
2023-05-09T04:50:31.655Z,13.79
2023-05-09T04:51:31.755Z,14.22
2023-05-09T04:52:31.649Z,14.50
2023-05-09T04:53:31.620Z,14.72
2023-05-09T04:54:31.696Z,14.97
2023-05-09T04:55:31.605Z,14.85
2023-05-09T04:56:31.584Z,14.65
2023-05-09T04:57:31.610Z,14.66
2023-05-09T04:58:31.671Z,14.91
2023-05-09T04:59:31.579Z,14.66
2023-05-09T05:00:31.578Z,15.06
2023-05-09T05:01:31.609Z,15.33
2023-05-09T05:02:31.597Z,15.11
2023-05-09T05:03:31.580Z,14.84
2023-05-09T05:04:31.551Z,14.86
2023-05-09T05:05:33.674Z,15.36
2023-05-09T05:06:31.508Z,15.72
2023-05-09T05:07:31.520Z,15.61
2023-05-09T05:08:31.513Z,15.72
2023-05-09T05:09:31.521Z,16.04
2023-05-09T05:10:31.574Z,16.38
2023-05-09T05:11:31.504Z,16.65
2023-05-09T05:12:31.511Z,17.22
2023-05-09T05:13:31.483Z,17.76
2023-05-09T05:14:31.458Z,18.00
2023-05-09T05:15:31.464Z,17.45
2023-05-09T05:16:31.459Z,17.05
2023-05-09T05:17:31.490Z,17.67
2023-05-09T05:18:31.451Z,17.74
2023-05-09T05:19:31.455Z,18.20
2023-05-09T05:20:31.402Z,18.90
2023-05-09T05:21:31.448Z,19.04
2023-05-09T05:22:32.766Z,19.12
2023-05-09T05:23:31.401Z,18.70
2023-05-09T05:24:31.398Z,18.65
2023-05-09T05:25:31.426Z,18.89
2023-05-09T05:26:31.461Z,19.09
2023-05-09T05:27:31.362Z,19.71
2023-05-09T05:28:31.608Z,20.18
2023-05-09T05:29:31.351Z,20.62
2023-05-09T05:30:34.016Z,20.90
2023-05-09T05:31:31.384Z,20.63
2023-05-09T05:32:31.351Z,19.73
2023-05-09T05:33:31.308Z,19.52
2023-05-09T05:34:31.325Z,18.83
2023-05-09T05:35:31.296Z,17.52
2023-05-09T05:36:31.272Z,16.87
2023-05-09T05:37:31.307Z,16.78
2023-05-09T05:38:31.260Z,16.71
2023-05-09T05:39:31.289Z,16.96
2023-05-09T05:40:31.268Z,17.02
2023-05-09T05:41:31.251Z,17.16
2023-05-09T05:42:31.313Z,16.90
2023-05-09T05:43:31.227Z,16.21
2023-05-09T05:44:31.260Z,16.43
2023-05-09T05:45:31.301Z,16.10
2023-05-09T05:46:31.230Z,16.05
2023-05-09T05:47:31.252Z,16.72
2023-05-09T05:48:31.253Z,17.60
2023-05-09T05:49:31.218Z,17.74
2023-05-09T05:50:31.217Z,17.97
2023-05-09T05:51:31.196Z,17.94
2023-05-09T05:52:31.181Z,17.78
2023-05-09T05:53:32.684Z,17.57
2023-05-09T05:54:31.146Z,17.14
2023-05-09T05:55:31.155Z,17.05
2023-05-09T05:56:31.134Z,18.00
2023-05-09T05:57:31.176Z,18.47
2023-05-09T05:58:31.208Z,18.10
2023-05-09T05:59:31.198Z,17.98
2023-05-09T06:00:31.076Z,18.41
2023-05-09T06:01:31.106Z,17.98
2023-05-09T06:02:31.339Z,17.79
2023-05-09T06:03:31.295Z,17.26
2023-05-09T06:04:31.059Z,16.49
2023-05-09T06:05:31.066Z,16.54
2023-05-09T06:06:31.067Z,15.75
2023-05-09T06:07:31.042Z,15.31
2023-05-09T06:08:31.062Z,15.86
2023-05-09T06:09:31.054Z,16.78
2023-05-09T06:10:30.999Z,18.11
2023-05-09T06:11:31.008Z,18.92
2023-05-09T06:12:31.019Z,18.99
2023-05-09T06:13:31.008Z,17.64
2023-05-09T06:14:31.058Z,17.19
2023-05-09T06:15:31.004Z,17.22
2023-05-09T06:16:31.037Z,17.36
2023-05-09T06:17:30.973Z,16.91
2023-05-09T06:18:30.931Z,17.02
2023-05-09T06:19:30.993Z,18.08
2023-05-09T06:20:30.926Z,18.80
2023-05-09T06:21:30.924Z,19.11
2023-05-09T06:22:30.929Z,19.15
2023-05-09T06:23:30.904Z,18.47
2023-05-09T06:24:35.835Z,19.26
2023-05-09T06:25:31.913Z,19.69
2023-05-09T06:26:30.867Z,19.26
2023-05-09T06:27:30.904Z,19.55
2023-05-09T06:28:30.884Z,19.88
2023-05-09T06:29:30.887Z,19.55
2023-05-09T06:30:30.929Z,20.04
2023-05-09T06:31:30.930Z,20.96
2023-05-09T06:32:30.893Z,21.14
2023-05-09T06:33:30.832Z,20.47
2023-05-09T06:34:30.840Z,21.07
2023-05-09T06:35:30.815Z,21.07
2023-05-09T06:36:30.840Z,20.75
2023-05-09T06:37:30.806Z,20.59
2023-05-09T06:38:30.801Z,20.66
2023-05-09T06:39:30.828Z,20.87
2023-05-09T06:40:30.782Z,21.07
2023-05-09T06:41:30.799Z,21.60
2023-05-09T06:42:30.752Z,21.88
2023-05-09T06:43:30.759Z,22.04
2023-05-09T06:44:30.731Z,21.88
2023-05-09T06:45:30.771Z,22.20
2023-05-09T06:46:30.899Z,22.26
2023-05-09T06:47:30.766Z,21.70
2023-05-09T06:48:30.713Z,21.17
2023-05-09T06:49:30.761Z,21.98
2023-05-09T06:50:32.835Z,22.25
2023-05-09T06:51:30.704Z,21.73
2023-05-09T06:52:30.683Z,22.55
2023-05-09T06:53:30.690Z,23.12
2023-05-09T06:54:30.691Z,23.15
2023-05-09T06:55:30.673Z,23.71
2023-05-09T06:56:30.659Z,23.88
2023-05-09T06:57:30.673Z,23.21
2023-05-09T06:58:30.643Z,22.51
2023-05-09T06:59:30.687Z,21.77
2023-05-09T07:00:30.639Z,21.61
2023-05-09T07:01:30.655Z,22.55
2023-05-09T07:02:30.750Z,22.44
2023-05-09T07:03:30.641Z,21.50
2023-05-09T07:04:30.606Z,22.26
2023-05-09T07:05:30.632Z,22.66
2023-05-09T07:06:30.587Z,22.32
2023-05-09T07:07:30.604Z,22.78
2023-05-09T07:08:30.634Z,22.88
2023-05-09T07:09:30.589Z,23.86
2023-05-09T07:10:30.568Z,24.18
2023-05-09T07:11:30.568Z,24.05
2023-05-09T07:12:30.541Z,22.87
2023-05-09T07:13:30.594Z,22.18
2023-05-09T07:14:30.546Z,21.02
2023-05-09T07:15:41.103Z,20.77
2023-05-09T07:16:31.589Z,21.50
2023-05-09T07:17:30.562Z,22.41
2023-05-09T07:18:30.615Z,22.60
2023-05-09T07:19:30.554Z,22.90
2023-05-09T07:20:30.489Z,23.37
2023-05-09T07:21:30.504Z,23.51
2023-05-09T07:22:32.140Z,23.50
2023-05-09T07:23:30.510Z,23.18
2023-05-09T07:24:30.463Z,22.80
2023-05-09T07:25:30.479Z,20.66
2023-05-09T07:26:30.485Z,20.56
2023-05-09T07:27:30.475Z,21.62
2023-05-09T07:28:30.501Z,21.45
2023-05-09T07:29:30.453Z,21.64
2023-05-09T07:30:30.449Z,22.70
2023-05-09T07:31:30.445Z,23.65
2023-05-09T07:32:30.460Z,24.76
2023-05-09T07:33:30.427Z,25.68
2023-05-09T07:34:30.562Z,25.83
2023-05-09T07:35:30.425Z,25.98
2023-05-09T07:36:30.477Z,24.96
2023-05-09T07:37:30.407Z,22.60
2023-05-09T07:38:30.372Z,22.39
2023-05-09T07:39:30.401Z,23.36
2023-05-09T07:40:30.369Z,24.08
2023-05-09T07:41:30.371Z,23.87
2023-05-09T07:42:30.423Z,23.86
2023-05-09T07:43:30.348Z,24.74
2023-05-09T07:44:30.341Z,25.84
2023-05-09T07:45:30.377Z,24.06
2023-05-09T07:46:30.392Z,23.28
2023-05-09T07:47:30.361Z,23.81
2023-05-09T07:48:30.321Z,24.70
2023-05-09T07:49:30.324Z,25.80
2023-05-09T07:50:31.050Z,26.47
2023-05-09T07:51:30.303Z,25.18
2023-05-09T07:52:30.306Z,23.81
2023-05-09T07:53:30.302Z,21.66
2023-05-09T07:54:30.259Z,20.65
2023-05-09T07:55:30.279Z,21.91
2023-05-09T07:56:30.258Z,22.73
2023-05-09T07:57:30.264Z,23.36
2023-05-09T07:58:30.268Z,23.58
2023-05-09T07:59:30.253Z,23.09
2023-05-09T08:00:31.049Z,22.25
2023-05-09T08:01:30.241Z,21.73
2023-05-09T08:02:30.283Z,22.08
2023-05-09T08:03:30.304Z,22.44
2023-05-09T08:04:30.259Z,21.48
2023-05-09T08:05:30.208Z,21.32
2023-05-09T08:06:30.278Z,21.40
2023-05-09T08:07:30.222Z,22.20
2023-05-09T08:08:30.188Z,22.47
2023-05-09T08:09:30.179Z,22.38
2023-05-09T08:10:30.158Z,22.06
2023-05-09T08:11:30.189Z,21.66
2023-05-09T08:12:30.139Z,21.67
2023-05-09T08:13:30.238Z,21.92
2023-05-09T08:14:30.124Z,22.11
2023-05-09T08:15:30.147Z,22.23
2023-05-09T08:16:30.263Z,22.13
2023-05-09T08:17:30.197Z,21.66
2023-05-09T08:18:30.095Z,21.42
2023-05-09T08:19:30.126Z,21.20
2023-05-09T08:20:30.081Z,21.30
2023-05-09T08:21:30.102Z,21.05
2023-05-09T08:22:30.167Z,21.20
2023-05-09T08:23:30.091Z,21.46
2023-05-09T08:24:30.069Z,21.50
2023-05-09T08:25:30.212Z,21.64
2023-05-09T08:26:30.045Z,21.15
2023-05-09T08:27:30.057Z,20.95
2023-05-09T08:28:30.056Z,20.80
2023-05-09T08:29:30.070Z,20.85
2023-05-09T08:30:30.018Z,21.06
2023-05-09T08:31:30.116Z,20.60
2023-05-09T08:32:30.045Z,20.67
2023-05-09T08:33:30.015Z,20.81
2023-05-09T08:34:29.992Z,20.96
2023-05-09T08:35:30.041Z,21.20
2023-05-09T08:36:29.989Z,20.96
2023-05-09T08:37:30.029Z,21.18
2023-05-09T08:38:30.052Z,21.39
2023-05-09T08:39:30.032Z,21.51
2023-05-09T08:40:29.982Z,21.14
2023-05-09T08:41:29.963Z,21.21
2023-05-09T08:42:29.942Z,21.39
2023-05-09T08:43:29.948Z,21.62
2023-05-09T08:44:29.932Z,21.85
2023-05-09T08:45:30.038Z,22.13
2023-05-09T08:46:29.987Z,21.98
2023-05-09T08:47:29.963Z,22.10
2023-05-09T08:48:29.922Z,22.43
2023-05-09T08:49:29.938Z,22.96
2023-05-09T08:50:29.902Z,23.36
2023-05-09T08:51:29.905Z,23.68
2023-05-09T08:52:29.910Z,23.40
2023-05-09T08:53:29.915Z,23.17
2023-05-09T08:54:29.983Z,23.81
2023-05-09T08:55:29.881Z,24.38
2023-05-09T08:56:29.837Z,24.73
2023-05-09T08:57:29.852Z,24.70
2023-05-09T08:58:29.824Z,24.91
2023-05-09T08:59:29.856Z,24.78
2023-05-09T09:00:29.812Z,25.11
2023-05-09T09:01:29.861Z,24.86
2023-05-09T09:02:29.893Z,23.95
2023-05-09T09:03:29.843Z,23.37
2023-05-09T09:04:29.839Z,22.53
2023-05-09T09:06:29.798Z,22.22
2023-05-09T09:07:31.171Z,21.77
2023-05-09T09:08:29.778Z,21.76
2023-05-09T09:09:29.765Z,21.76
2023-05-09T09:10:29.905Z,21.75
2023-05-09T09:11:29.766Z,21.46
2023-05-09T09:12:29.733Z,21.21
2023-05-09T09:13:29.826Z,21.17
2023-05-09T09:14:29.720Z,21.22
2023-05-09T09:15:29.753Z,21.35
2023-05-09T09:16:29.752Z,21.91
2023-05-09T09:17:29.741Z,22.10
2023-05-09T09:18:29.686Z,22.35
2023-05-09T09:19:29.704Z,22.32
2023-05-09T09:20:29.692Z,22.25
2023-05-09T09:21:29.703Z,22.32
2023-05-09T09:22:29.666Z,22.38
2023-05-09T09:23:29.683Z,22.39
2023-05-09T09:24:29.652Z,22.36
2023-05-09T09:25:29.679Z,22.39
2023-05-09T09:26:29.731Z,22.35
2023-05-09T09:27:29.636Z,22.44
2023-05-09T09:28:29.681Z,22.32
2023-05-09T09:29:29.637Z,22.02
2023-05-09T09:30:29.596Z,21.54
2023-05-09T09:31:29.618Z,21.92
2023-05-09T09:32:29.603Z,22.41
2023-05-09T09:33:29.639Z,22.55
2023-05-09T09:34:29.577Z,22.84
2023-05-09T09:35:29.597Z,22.75
2023-05-09T09:36:29.575Z,22.90
2023-05-09T09:37:29.593Z,23.23
2023-05-09T09:38:29.541Z,23.17
2023-05-09T09:39:29.572Z,23.25
2023-05-09T09:40:29.544Z,22.85
2023-05-09T09:41:29.576Z,22.02
2023-05-09T09:42:29.656Z,21.92
2023-05-09T09:43:29.560Z,21.69
2023-05-09T09:44:29.502Z,21.99
2023-05-09T09:45:29.512Z,22.02
2023-05-09T09:46:29.520Z,22.17
2023-05-09T09:47:29.517Z,22.26
2023-05-09T09:48:29.497Z,22.47
2023-05-09T09:49:29.492Z,22.23
2023-05-09T09:50:29.468Z,22.18
2023-05-09T09:51:29.463Z,22.51
2023-05-09T09:52:29.454Z,22.91
2023-05-09T09:53:29.487Z,23.36
2023-05-09T09:54:29.476Z,23.21
2023-05-09T09:55:29.444Z,22.78
2023-05-09T09:56:29.429Z,23.39
2023-05-09T09:57:29.442Z,23.54
2023-05-09T09:58:29.532Z,23.20
2023-05-09T09:59:29.451Z,23.02
2023-05-09T10:00:29.392Z,22.57
2023-05-09T10:01:29.481Z,22.69
2023-05-09T10:02:29.384Z,22.50
2023-05-09T10:03:29.416Z,21.89
2023-05-09T10:04:29.352Z,21.79
2023-05-09T10:05:29.404Z,21.91
2023-05-09T10:06:29.343Z,22.11
2023-05-09T10:07:29.369Z,22.44
2023-05-09T10:08:29.351Z,22.63
2023-05-09T10:09:29.353Z,22.90
2023-05-09T10:10:29.314Z,22.43
2023-05-09T10:11:29.360Z,21.91
2023-05-09T10:12:29.313Z,21.55
2023-05-09T10:13:29.378Z,21.35
2023-05-09T10:14:29.375Z,21.36
2023-05-09T10:15:33.459Z,21.45
2023-05-09T10:16:40.135Z,20.96
2023-05-09T10:17:30.430Z,20.29
2023-05-09T10:18:29.511Z,20.70
2023-05-09T10:19:29.275Z,21.24
2023-05-09T10:20:29.246Z,21.48
2023-05-09T10:21:29.285Z,21.54
2023-05-09T10:22:29.239Z,21.95
2023-05-09T10:23:29.238Z,22.38
2023-05-09T10:24:29.224Z,22.87
2023-05-09T10:25:29.225Z,22.60
2023-05-09T10:26:29.251Z,22.04
2023-05-09T10:27:29.234Z,21.69
2023-05-09T10:28:29.186Z,21.51
2023-05-09T10:29:29.229Z,21.73
2023-05-09T10:30:29.383Z,22.15
2023-05-09T10:31:29.530Z,22.36
2023-05-09T10:32:29.162Z,22.06
2023-05-09T10:33:29.173Z,22.08
2023-05-09T10:34:29.174Z,22.26
2023-05-09T10:35:29.161Z,22.73
2023-05-09T10:36:29.138Z,22.66
2023-05-09T10:37:29.584Z,22.36
2023-05-09T10:38:29.131Z,22.14
2023-05-09T10:39:29.171Z,22.20
2023-05-09T10:40:29.097Z,21.77
2023-05-09T10:41:29.106Z,22.14
2023-05-09T10:42:29.094Z,22.80
2023-05-09T10:43:29.467Z,23.20
2023-05-09T10:44:29.081Z,23.71
2023-05-09T10:45:29.116Z,23.78
2023-05-09T10:46:29.188Z,23.27
2023-05-09T10:47:29.116Z,23.24
2023-05-09T10:48:29.046Z,23.21
2023-05-09T10:49:29.051Z,23.10
2023-05-09T10:50:29.021Z,23.23
2023-05-09T10:51:29.097Z,23.80
2023-05-09T10:52:29.014Z,24.40
2023-05-09T10:53:29.033Z,24.54
2023-05-09T10:54:30.899Z,23.66
2023-05-09T10:55:29.022Z,22.07
2023-05-09T10:56:29.014Z,21.46
2023-05-09T10:57:29.032Z,21.40
2023-05-09T10:58:28.987Z,21.37
2023-05-09T10:59:28.988Z,21.42
2023-05-09T11:00:28.967Z,21.93
2023-05-09T11:01:29.025Z,22.23
2023-05-09T11:02:29.137Z,22.88
2023-05-09T11:03:29.042Z,23.13
2023-05-09T11:04:28.980Z,23.81
2023-05-09T11:05:28.970Z,24.39
2023-05-09T11:06:28.940Z,24.55
2023-05-09T11:07:28.932Z,24.70
2023-05-09T11:08:28.935Z,23.99
2023-05-09T11:09:28.948Z,23.78
2023-05-09T11:10:28.890Z,24.01
2023-05-09T11:11:28.918Z,24.33
2023-05-09T11:12:28.888Z,24.14
2023-05-09T11:13:28.928Z,23.95
2023-05-09T11:14:28.881Z,24.53
2023-05-09T11:15:28.895Z,24.40
2023-05-09T11:16:28.907Z,23.68
2023-05-09T11:17:28.901Z,24.05
2023-05-09T11:18:28.933Z,24.69
2023-05-09T11:19:28.848Z,24.66
2023-05-09T11:20:28.824Z,24.84
2023-05-09T11:21:28.856Z,25.33
2023-05-09T11:22:28.838Z,25.47
2023-05-09T11:23:28.826Z,24.35
2023-05-09T11:24:28.803Z,23.56
2023-05-09T11:25:28.848Z,22.70
2023-05-09T11:26:28.796Z,22.85
2023-05-09T11:27:28.798Z,22.72
2023-05-09T11:28:28.822Z,23.28
2023-05-09T11:29:28.804Z,23.88
2023-05-09T11:30:28.787Z,23.93
2023-05-09T11:31:28.806Z,23.74
2023-05-09T11:32:28.791Z,23.61
2023-05-09T11:33:28.808Z,23.83
2023-05-09T11:34:28.843Z,23.78
2023-05-09T11:35:28.807Z,23.63
2023-05-09T11:36:28.727Z,23.13
2023-05-09T11:37:28.732Z,23.61
2023-05-09T11:38:28.715Z,24.18
2023-05-09T11:39:28.717Z,23.51
2023-05-09T11:40:28.709Z,23.58
2023-05-09T11:41:28.755Z,24.11
2023-05-09T11:42:28.679Z,24.73
2023-05-09T11:43:28.692Z,25.21
2023-05-09T11:44:28.689Z,25.63
2023-05-09T11:45:28.714Z,25.91
2023-05-09T11:46:28.700Z,26.36
2023-05-09T11:47:28.737Z,26.56
2023-05-09T11:48:28.655Z,26.74
2023-05-09T11:49:28.642Z,27.05
2023-05-09T11:50:28.723Z,26.62
2023-05-09T11:51:28.635Z,26.51
2023-05-09T11:52:28.620Z,26.55
2023-05-09T11:53:28.640Z,26.23
2023-05-09T11:54:28.606Z,25.21
2023-05-09T11:55:28.636Z,25.07
2023-05-09T11:56:28.602Z,25.40
2023-05-09T11:57:28.590Z,25.55
2023-05-09T11:58:28.567Z,25.44
2023-05-09T11:59:28.573Z,25.40
2023-05-09T12:00:28.575Z,25.62
2023-05-09T12:01:28.585Z,25.93
2023-05-09T12:02:28.608Z,26.00
2023-05-09T12:03:28.772Z,25.10
2023-05-09T12:04:28.555Z,24.69
2023-05-09T12:05:28.556Z,23.39
2023-05-09T12:06:28.617Z,23.41
2023-05-09T12:07:28.522Z,24.14
2023-05-09T12:08:28.534Z,24.74
2023-05-09T12:09:28.527Z,25.10
2023-05-09T12:10:28.498Z,25.22
2023-05-09T12:11:28.510Z,24.84
2023-05-09T12:12:28.500Z,24.68
2023-05-09T12:13:28.539Z,25.17
2023-05-09T12:14:28.480Z,24.84
2023-05-09T12:15:28.465Z,24.88
2023-05-09T12:16:28.501Z,25.28
2023-05-09T12:17:28.466Z,25.22
2023-05-09T12:18:28.449Z,25.48
2023-05-09T12:19:28.475Z,25.36
2023-05-09T12:20:28.424Z,25.44
2023-05-09T12:21:28.434Z,25.53
2023-05-09T12:22:28.497Z,25.28
2023-05-09T12:23:28.434Z,25.18
2023-05-09T12:24:28.399Z,24.92
2023-05-09T12:25:28.435Z,25.08
2023-05-09T12:26:28.382Z,24.76
2023-05-09T12:27:28.396Z,24.24
2023-05-09T12:28:28.354Z,24.33
2023-05-09T12:29:28.367Z,23.74
2023-05-09T12:30:28.363Z,24.16
2023-05-09T12:31:28.373Z,24.50
2023-05-09T12:32:28.372Z,24.92
2023-05-09T12:33:28.343Z,24.99
2023-05-09T12:34:28.326Z,24.89
2023-05-09T12:35:28.363Z,25.51
2023-05-09T12:36:28.325Z,25.78
2023-05-09T12:37:28.309Z,24.89
2023-05-09T12:38:28.387Z,24.03
2023-05-09T12:39:28.306Z,24.43
2023-05-09T12:40:28.306Z,25.14
2023-05-09T12:41:37.145Z,25.87
2023-05-09T12:42:29.274Z,26.28
2023-05-09T12:43:28.289Z,26.06
2023-05-09T12:44:28.256Z,26.03
2023-05-09T12:45:28.262Z,25.93
2023-05-09T12:46:28.291Z,25.38
2023-05-09T12:47:28.306Z,24.88
2023-05-09T12:48:28.227Z,25.07
2023-05-09T12:49:28.230Z,25.35
2023-05-09T12:50:28.213Z,25.66
2023-05-09T12:51:28.220Z,25.91
2023-05-09T12:52:28.273Z,26.22
2023-05-09T12:53:28.228Z,26.19
2023-05-09T12:54:28.277Z,26.07
2023-05-09T12:55:28.212Z,26.07
2023-05-09T12:56:28.197Z,26.22
2023-05-09T12:57:30.768Z,26.45
2023-05-09T12:58:28.178Z,26.47